createdAt,value
2022-09-18T00:01:18.150Z,12.50
2022-09-18T00:11:22.435Z,12.50
2022-09-18T00:21:25.966Z,12.50
2022-09-18T00:31:34.928Z,12.50
2022-09-18T00:41:39.013Z,12.50
2022-09-18T00:51:42.384Z,12.60
2022-09-18T01:01:44.085Z,12.50
2022-09-18T01:12:13.544Z,12.60
2022-09-18T01:22:53.027Z,12.60
2022-09-18T01:33:04.098Z,12.50
2022-09-18T01:43:09.661Z,12.50
2022-09-18T01:53:16.275Z,12.50
2022-09-18T02:03:35.593Z,12.60
2022-09-18T02:14:08.239Z,12.60
2022-09-18T02:24:12.149Z,12.70
2022-09-18T02:34:13.953Z,12.70
2022-09-18T02:44:25.201Z,12.70
2022-09-18T02:54:33.238Z,12.60
2022-09-18T03:04:34.854Z,12.70
2022-09-18T03:14:36.486Z,12.60
2022-09-18T03:24:38.134Z,12.60
2022-09-18T03:34:39.844Z,12.60
2022-09-18T03:44:41.520Z,12.60
2022-09-18T03:54:43.138Z,12.70
2022-09-18T04:04:44.770Z,12.80
2022-09-18T04:14:46.386Z,12.80
2022-09-18T04:24:48.144Z,12.80
2022-09-18T04:34:49.795Z,12.90
2022-09-18T04:44:51.452Z,12.80
2022-09-18T04:54:53.108Z,12.90
2022-09-18T05:04:54.724Z,12.80
2022-09-18T05:14:56.348Z,12.70
2022-09-18T05:24:58.006Z,12.70
2022-09-18T05:34:59.651Z,12.70
2022-09-18T05:45:02.185Z,12.70
2022-09-18T05:55:04.016Z,12.70
2022-09-18T06:05:06.060Z,12.70
2022-09-18T06:15:08.578Z,12.70
2022-09-18T06:25:10.480Z,12.80
2022-09-18T06:35:12.105Z,12.70
2022-09-18T06:45:13.879Z,12.70
2022-09-18T06:55:16.941Z,12.80
2022-09-18T07:05:18.578Z,12.80
2022-09-18T07:15:20.256Z,12.80
2022-09-18T07:25:22.743Z,12.80
2022-09-18T07:35:24.633Z,12.80
2022-09-18T07:45:26.352Z,12.90
2022-09-18T07:55:28.455Z,13.10
2022-09-18T08:05:30.503Z,13.10
2022-09-18T08:15:33.623Z,13.30
2022-09-18T08:25:35.784Z,13.30
2022-09-18T08:35:37.712Z,13.50
2022-09-18T08:46:00.611Z,13.50
2022-09-18T08:56:06.339Z,13.60
2022-09-18T09:06:41.595Z,13.60
2022-09-18T09:16:46.903Z,13.70
2022-09-18T09:26:49.980Z,13.80
2022-09-18T09:36:54.832Z,13.90
2022-09-18T09:47:27.294Z,14.00
2022-09-18T09:57:47.951Z,14.00
2022-09-18T10:08:05.949Z,13.80
2022-09-18T10:18:25.923Z,13.40
2022-09-18T10:28:29.600Z,13.40
2022-09-18T10:38:34.495Z,13.50
2022-09-18T10:48:36.398Z,13.50
2022-09-18T10:58:38.034Z,13.70
2022-09-18T11:08:45.021Z,13.80
2022-09-18T11:18:47.316Z,14.30
2022-09-18T11:29:16.290Z,14.70
2022-09-18T11:39:28.236Z,14.80
2022-09-18T11:49:40.794Z,14.80
2022-09-18T11:59:46.639Z,14.70
2022-09-18T12:10:20.209Z,14.60
2022-09-18T12:20:33.540Z,14.50
2022-09-18T12:30:56.640Z,14.60
2022-09-18T12:41:23.837Z,14.70
2022-09-18T12:51:33.882Z,14.80
2022-09-18T13:01:40.832Z,14.90
2022-09-18T13:11:47.926Z,15.00
2022-09-18T13:21:52.407Z,14.90
2022-09-18T13:31:54.379Z,14.90
2022-09-18T13:41:58.410Z,14.80
2022-09-18T13:52:35.521Z,14.70
2022-09-18T14:02:39.195Z,14.60
2022-09-18T14:12:40.919Z,14.70
2022-09-18T14:22:42.643Z,14.60
2022-09-18T14:33:04.430Z,14.40
2022-09-18T14:43:16.268Z,14.40
2022-09-18T14:53:24.561Z,14.50
2022-09-18T15:03:39.526Z,14.50
2022-09-18T15:13:42.638Z,14.30
2022-09-18T15:23:44.707Z,14.20
2022-09-18T15:34:01.186Z,14.20
2022-09-18T15:44:34.494Z,14.20
2022-09-18T15:54:36.108Z,14.00
2022-09-18T16:04:37.761Z,13.90
2022-09-18T16:14:58.373Z,13.90
2022-09-18T16:25:01.554Z,13.70
2022-09-18T16:35:06.248Z,13.70
2022-09-18T16:45:08.105Z,13.70
2022-09-18T16:55:09.728Z,13.60
2022-09-18T17:05:11.378Z,13.50
2022-09-18T17:15:12.985Z,13.40
2022-09-18T17:25:15.060Z,13.40
2022-09-18T17:35:17.560Z,13.20
2022-09-18T17:45:19.310Z,13.10
2022-09-18T17:55:21.023Z,13.00
2022-09-18T18:05:23.667Z,12.90
2022-09-18T18:15:25.307Z,12.90
2022-09-18T18:25:27.209Z,12.90
2022-09-18T18:35:31.292Z,12.90
2022-09-18T18:45:37.438Z,12.70
2022-09-18T18:55:39.131Z,12.70
2022-09-18T19:05:40.822Z,12.60
2022-09-18T19:15:42.452Z,12.30
2022-09-18T19:25:45.116Z,12.20
2022-09-18T19:35:46.950Z,12.00
2022-09-18T19:45:48.806Z,12.00
2022-09-18T19:55:50.442Z,11.90
2022-09-18T20:05:52.073Z,11.70
2022-09-18T20:16:09.967Z,11.70
2022-09-18T20:26:17.483Z,11.60
2022-09-18T20:36:19.342Z,11.60
2022-09-18T20:46:21.018Z,11.30
2022-09-18T20:56:30.275Z,11.10
2022-09-18T21:06:33.805Z,11.30
2022-09-18T21:16:41.211Z,11.30
2022-09-18T21:26:48.171Z,11.30
2022-09-18T21:37:04.368Z,11.20
2022-09-18T21:47:08.237Z,11.10
2022-09-18T21:57:09.871Z,11.00
2022-09-18T22:07:12.191Z,11.00
2022-09-18T22:17:13.805Z,10.80
2022-09-18T22:27:15.427Z,10.80
2022-09-18T22:37:17.343Z,10.80
2022-09-18T22:47:18.976Z,10.70
2022-09-18T22:57:20.596Z,10.70
2022-09-18T23:07:22.207Z,10.60
2022-09-18T23:17:24.094Z,10.60
2022-09-18T23:27:25.728Z,10.50
2022-09-18T23:37:27.351Z,10.40
2022-09-18T23:47:28.971Z,10.50
2022-09-18T23:57:30.603Z,10.50
